Time;durP1;ratioP1;P1;durP2;ratioP2;P2;SDS_P1;SDS_P2;PMS_P1;PMS_P2;Temp;Humidity;BMP_temperature;BMP_pressure;BME280_temperature;BME280_humidity;BME280_pressure;Samples;Min_cycle;Max_cycle;Signal;HPM_P1;HPM_P2
2023/02/09 07:49:26;;;;;;;;;;;;;;;-4.01;66.40;99726.78;5569139;23;20307;-62
2023/02/09 07:51:51;;;;;;;;;;;;;;;-3.94;67.48;99723.44;4925764;29;20013;-62
2023/02/09 07:54:17;;;;;;;;;;;;;;;-3.92;66.86;99732.03;4932294;29;19990;-63
2023/02/09 07:56:42;;;;;;;;;;;;;;;-3.92;66.02;99730.34;4933966;29;19922;-63
2023/02/09 07:59:08;;;;;;;;;;;;;;;-3.85;68.11;99729.56;4923323;29;19923;-63
2023/02/09 08:01:34;;;;;;;;;;;;;;;-3.79;66.99;99735.59;4913472;29;19915;-63
2023/02/09 08:03:59;;;;;;;;;;;;;;;-3.75;66.76;99738.25;4918280;29;19915;-64
2023/02/09 08:06:33;;;;;;;;;;;;;;;-3.70;66.17;99744.28;4915835;29;19974;-63
2023/02/09 08:09:01;;;;;;;;;;;;;;;-3.66;64.91;99738.34;4915960;29;19919;-64
2023/02/09 08:11:31;;;;;;;;;;;;;;;-3.60;64.94;99745.28;4915889;29;19926;-65
2023/02/09 08:13:56;;;;;;;;;;;;;;;-3.51;65.14;99750.53;4912771;29;19919;-65
2023/02/09 08:16:23;;;;;;;;;;;;;;;-3.45;65.92;99742.03;4916940;29;19923;-65
2023/02/09 08:18:49;;;;;;;;;;;;;;;-3.41;65.30;99748.91;4906931;29;20010;-64
2023/02/09 08:21:15;;;;;;;;;;;;;;;-3.36;64.25;99745.56;4915748;29;19919;-63
2023/02/09 08:23:41;;;;;;;;;;;;;;;-3.30;64.19;99744.81;4916672;29;20357;-64
2023/02/09 08:26:08;;;;;;;;;;;;;;;-3.23;64.75;99741.47;4914612;29;19926;-64
2023/02/09 08:28:34;;;;;;;;;;;;;;;-3.18;64.84;99734.66;4917461;29;19981;-65
2023/02/09 08:30:59;;;;;;;;;;;;;;;-3.12;65.38;99739.88;4915078;29;19958;-63
2023/02/09 08:33:25;;;;;;;;;;;;;;;-3.07;64.80;99736.47;4916646;29;19919;-63
2023/02/09 08:35:51;;;;;;;;;;;;;;;-2.98;64.42;99741.72;4916705;29;19919;-63
2023/02/09 08:38:16;;;;;;;;;;;;;;;-2.90;64.70;99732.38;4915791;29;19923;-64
2023/02/09 08:40:43;;;;;;;;;;;;;;;-2.85;63.56;99733.31;4917343;29;19919;-63
2023/02/09 08:43:08;;;;;;;;;;;;;;;-2.76;63.38;99727.38;4910877;29;19925;-62
2023/02/09 08:45:37;;;;;;;;;;;;;;;-2.71;62.36;99736.84;4916621;29;19919;-62
2023/02/09 08:48:02;;;;;;;;;;;;;;;-2.62;62.52;99733.50;4915775;29;19982;-62
2023/02/09 08:50:27;;;;;;;;;;;;;;;-2.54;62.50;99734.44;4913314;29;20355;-62
2023/02/09 08:52:53;;;;;;;;;;;;;;;-2.46;62.87;99732.78;4907345;29;19926;-61
2023/02/09 08:55:18;;;;;;;;;;;;;;;-2.36;62.25;99732.88;4916624;29;19927;-62
2023/02/09 08:57:43;;;;;;;;;;;;;;;-2.29;61.29;99732.91;4913110;29;19923;-62
2023/02/09 09:00:09;;;;;;;;;;;;;;;-2.19;61.77;99731.28;4914486;29;19919;-62
2023/02/09 09:02:34;;;;;;;;;;;;;;;-2.09;61.11;99727.06;4915523;29;19919;-61
2023/02/09 09:04:59;;;;;;;;;;;;;;;-2.03;61.48;99716.78;4917101;29;20478;-62
2023/02/09 09:07:24;;;;;;;;;;;;;;;-1.95;60.95;99720.28;4918648;29;20272;-63
2023/02/09 09:09:50;;;;;;;;;;;;;;;-1.85;61.05;99721.22;4918749;29;20352;-63
2023/02/09 09:12:15;;;;;;;;;;;;;;;-1.78;59.94;99716.09;4913455;29;20339;-62
2023/02/09 09:14:43;;;;;;;;;;;;;;;-1.70;59.67;99711.84;4913320;29;20339;-63
2023/02/09 09:17:08;;;;;;;;;;;;;;;-1.60;59.77;99711.91;4908975;29;19987;-63
2023/02/09 09:19:33;;;;;;;;;;;;;;;-1.51;60.28;99711.94;4906687;29;19927;-62
2023/02/09 09:22:01;;;;;;;;;;;;;;;-1.43;60.22;99710.25;4917308;29;19987;-63
2023/02/09 09:24:27;;;;;;;;;;;;;;;-1.34;60.41;99710.28;4915382;29;19923;-63
2023/02/09 09:26:52;;;;;;;;;;;;;;;-1.26;60.06;99711.16;4913175;29;19919;-63
2023/02/09 09:29:17;;;;;;;;;;;;;;;-1.17;59.54;99701.75;4910516;29;19931;-63
2023/02/09 09:31:43;;;;;;;;;;;;;;;-1.07;59.07;99706.06;4913872;29;19926;-64
2023/02/09 09:34:08;;;;;;;;;;;;;;;-0.99;58.69;99707.81;4910573;29;19923;-63
2023/02/09 09:36:33;;;;;;;;;;;;;;;-0.89;57.96;99698.38;4916235;29;20314;-63
2023/02/09 09:38:58;;;;;;;;;;;;;;;-0.82;58.81;99700.09;4915225;29;20294;-64
2023/02/09 09:41:23;;;;;;;;;;;;;;;-0.72;58.96;99700.97;4913327;29;20310;-63
2023/02/09 09:43:49;;;;;;;;;;;;;;;-0.70;57.20;99698.38;4923223;29;20031;-62
2023/02/09 09:46:15;;;;;;;;;;;;;;;-0.59;57.37;99696.66;4915216;29;19919;-64
2023/02/09 09:48:44;;;;;;;;;;;;;;;-0.07;81.23;99709.50;4909583;29;20451;-63
2023/02/09 09:51:19;;;;;;;;;;;;;;;1.71;91.05;99700.84;4910245;29;20391;-64
2023/02/09 09:53:45;;;;;;;;;;;;;;;1.86;59.67;99698.13;4915465;29;19974;-63
2023/02/09 09:56:10;;;;;;;;;;;;;;;1.77;54.58;99690.44;4913791;29;19919;-63
2023/02/09 09:58:38;;;;;;;;;;;;;;;1.65;53.38;99691.38;4916692;29;20359;-62
2023/02/09 10:01:03;;;;;;;;;;;;;;;1.53;53.53;99691.50;4912223;29;19927;-62
2023/02/09 10:03:29;;;;;;;;;;;;;;;1.41;52.91;99692.44;4914115;29;19927;-63
2023/02/09 10:05:55;;;;;;;;;;;;;;;1.34;53.45;99695.97;4915421;29;19966;-61
2023/02/09 10:08:23;;;;;;;;;;;;;;;1.34;54.18;99701.13;4907317;29;19959;-61
2023/02/09 10:11:00;;;;;;;;;;;;;;;1.35;54.48;99705.44;4910894;29;19923;-61
2023/02/09 10:13:26;;;;;;;;;;;;;;;1.34;53.83;99695.97;4916094;29;20013;-61
2023/02/09 10:15:55;;;;;;;;;;;;;;;1.39;53.48;99701.97;4912693;29;20019;-61
2023/02/09 10:18:24;;;;;;;;;;;;;;;1.44;53.06;99713.13;4913771;29;19942;-64
2023/02/09 10:21:15;;;;;;;;;;;;;;;1.50;53.45;99707.91;4914641;29;20343;-64
2023/02/09 10:23:46;;;;;;;;;;;;;;;1.60;53.70;99701.78;4911916;29;19919;-63
2023/02/09 10:26:11;;;;;;;;;;;;;;;1.70;53.26;99705.16;4911328;29;19941;-64
2023/02/09 10:28:40;;;;;;;;;;;;;;;1.79;53.17;99699.03;4913704;29;20432;-63
2023/02/09 10:31:09;;;;;;;;;;;;;;;1.91;53.34;99701.50;4906928;29;19974;-62
2023/02/09 10:33:36;;;;;;;;;;;;;;;2.03;53.40;99688.47;4913286;29;19920;-63
2023/02/09 10:36:04;;;;;;;;;;;;;;;2.13;51.71;99697.84;4916134;29;19934;-64
2023/02/09 10:38:30;;;;;;;;;;;;;;;2.24;51.70;99702.06;4913996;29;20507;-64
2023/02/09 10:40:55;;;;;;;;;;;;;;;2.36;51.15;99699.31;4913150;29;19919;-63
2023/02/09 10:43:23;;;;;;;;;;;;;;;2.48;50.23;99695.69;4908553;29;19926;-64
2023/02/09 10:45:52;;;;;;;;;;;;;;;2.61;50.42;99690.38;4914551;29;19994;-64
2023/02/09 10:48:18;;;;;;;;;;;;;;;2.76;50.19;99678.09;4910998;29;20017;-64
2023/02/09 10:50:57;;;;;;;;;;;;;;;6.73;77.81;99683.47;4911795;29;20001;-62
2023/02/09 10:53:23;;;;;;;;;;;;;;;9.81;57.52;99671.66;4904875;29;19967;-62
2023/02/09 10:55:49;;;;;;;;;;;;;;;8.75;38.57;99673.25;4912884;29;19962;-63
2023/02/09 10:58:32;;;;;;;;;;;;;;;7.85;40.30;99675.56;4911701;29;19983;-63
2023/02/09 11:01:04;;;;;;;;;;;;;;;7.14;38.72;99670.94;4913491;29;19922;-62
2023/02/09 11:03:29;;;;;;;;;;;;;;;6.92;40.07;99662.94;4913299;29;19951;-62
2023/02/09 11:05:57;;;;;;;;;;;;;;;6.76;40.91;99666.91;4912037;29;19947;-62
2023/02/09 11:08:22;;;;;;;;;;;;;;;6.61;40.72;99665.59;4915040;29;19927;-62
2023/02/09 11:11:04;;;;;;;;;;;;;;;6.51;40.05;99661.56;4916761;29;20288;-62
2023/02/09 11:13:30;;;;;;;;;;;;;;;6.35;40.80;99659.38;4912448;29;19925;-63
2023/02/09 11:16:08;;;;;;;;;;;;;;;6.45;41.99;99659.13;4908460;29;19915;-62
2023/02/09 11:18:33;;;;;;;;;;;;;;;7.54;59.43;99656.63;4911244;29;20474;-61
2023/02/09 11:21:05;;;;;;;;;;;;;;;8.53;51.43;99657.50;4910862;29;20013;-62
2023/02/09 11:23:39;;;;;;;;;;;;;;;9.23;48.63;99657.41;4907935;29;19969;-62
2023/02/09 11:26:09;;;;;;;;;;;;;;;9.82;44.94;99641.91;4909953;29;19966;-62
2023/02/09 11:28:37;;;;;;;;;;;;;;;10.19;40.79;99634.16;4916358;29;20017;-62
2023/02/09 11:31:05;;;;;;;;;;;;;;;10.49;40.11;99646.84;4918793;29;19926;-61
2023/02/09 11:33:36;;;;;;;;;;;;;;;10.73;39.25;99636.16;4911609;29;19919;-62
2023/02/09 11:36:16;;;;;;;;;;;;;;;10.96;39.45;99638.53;4917481;29;19919;-63
2023/02/09 11:39:08;;;;;;;;;;;;;;;11.23;39.79;99636.38;4915652;29;19927;-64
2023/02/09 11:44:26;;;;;;;;;;;;;;;11.68;38.74;99636.81;4916022;29;19943;-63
2023/02/09 11:46:52;;;;;;;;;;;;;;;11.85;36.61;99636.84;4914680;29;19915;-63
2023/02/09 11:49:18;;;;;;;;;;;;;;;11.90;32.00;99626.91;4915892;29;19927;-63
2023/02/09 11:51:43;;;;;;;;;;;;;;;11.44;33.18;99626.59;4916346;29;19975;-62
2023/02/09 11:54:19;;;;;;;;;;;;;;;11.42;32.61;99625.81;4915469;29;19965;-63
2023/02/09 11:56:51;;;;;;;;;;;;;;;11.04;31.39;99620.63;4913275;29;19923;-63
2023/02/09 11:59:20;;;;;;;;;;;;;;;10.95;38.64;99615.00;4911522;29;19969;-63
2023/02/09 12:02:04;;;;;;;;;;;;;;;10.85;31.89;99607.56;4915993;29;19915;-61
2023/02/09 12:04:38;;;;;;;;;;;;;;;9.96;32.27;99613.34;4912931;29;19923;-62
2023/02/09 12:07:29;;;;;;;;;;;;;;;9.62;32.87;99606.94;4909818;29;21608;-63
2023/02/09 12:10:02;;;;;;;;;;;;;;;9.56;33.36;99604.56;4910397;29;20006;-62
2023/02/09 12:12:36;;;;;;;;;;;;;;;10.07;33.81;99605.00;4910748;29;19930;-61
2023/02/09 12:15:03;;;;;;;;;;;;;;;10.43;33.91;99607.78;4912884;29;19929;-62
2023/02/09 12:17:35;;;;;;;;;;;;;;;10.79;33.79;99593.88;4909485;29;19926;-62
2023/02/09 12:20:00;;;;;;;;;;;;;;;11.11;33.01;99603.69;4911554;29;19923;-62
2023/02/09 12:22:31;;;;;;;;;;;;;;;13.35;44.09;99605.03;4909040;29;19925;-61
2023/02/09 12:25:15;;;;;;;;;;;;;;;15.39;38.16;99585.31;4915828;29;19974;-62
2023/02/09 12:27:41;;;;;;;;;;;;;;;16.24;33.87;99579.56;4911622;29;19954;-61
2023/02/09 12:30:26;;;;;;;;;;;;;;;16.48;31.91;99571.69;4911152;29;20720;-61
2023/02/09 12:32:52;;;;;;;;;;;;;;;16.56;29.37;99566.72;4913540;29;19962;-63
2023/02/09 12:35:25;;;;;;;;;;;;;;;15.85;25.23;99555.75;4907362;29;19955;-61
2023/02/09 12:38:09;;;;;;;;;;;;;;;15.15;25.79;99548.13;4917067;29;19950;-61
2023/02/09 12:40:35;;;;;;;;;;;;;;;14.95;26.07;99544.16;4910278;29;19987;-62
2023/02/09 12:43:00;;;;;;;;;;;;;;;14.58;26.26;99537.75;4915078;29;20337;-62
2023/02/09 12:45:35;;;;;;;;;;;;;;;14.16;26.86;99539.50;4908864;29;20087;-62
2023/02/09 12:48:06;;;;;;;;;;;;;;;13.57;27.77;99554.53;4907655;29;19919;-62
2023/02/09 12:50:33;;;;;;;;;;;;;;;13.96;27.45;99553.91;4912476;29;19987;-62
2023/02/09 12:53:17;;;;;;;;;;;;;;;13.77;27.34;99542.78;4914829;29;19938;-62
2023/02/09 12:55:56;;;;;;;;;;;;;;;13.24;28.08;99541.53;4913742;29;20410;-60
2023/02/09 12:58:40;;;;;;;;;;;;;;;13.44;28.09;99549.13;4911926;29;19923;-62
2023/02/09 13:01:05;;;;;;;;;;;;;;;13.41;27.48;99543.19;4908295;29;19924;-62
2023/02/09 13:03:31;;;;;;;;;;;;;;;13.56;27.84;99536.16;4915345;29;19915;-63
2023/02/09 13:05:57;;;;;;;;;;;;;;;13.92;27.54;99533.94;4914684;29;19922;-62
2023/02/09 13:08:42;;;;;;;;;;;;;;;14.19;27.19;99533.19;4911828;29;19958;-63
2023/02/09 13:11:17;;;;;;;;;;;;;;;14.84;34.97;99535.25;4902837;29;20396;-62
2023/02/09 13:13:56;;;;;;;;;;;;;;;14.44;26.75;99527.19;4911062;29;20521;-62
2023/02/09 13:16:21;;;;;;;;;;;;;;;13.69;27.63;99532.69;4910367;29;19978;-63
2023/02/09 13:19:01;;;;;;;;;;;;;;;14.08;27.29;99525.94;4913376;29;19919;-62
2023/02/09 13:21:36;;;;;;;;;;;;;;;14.27;26.77;99525.63;4912063;29;20060;-62
2023/02/09 13:24:02;;;;;;;;;;;;;;;14.25;26.47;99527.53;4913847;29;20005;-63
2023/02/09 13:26:29;;;;;;;;;;;;;;;14.07;26.45;99528.66;4914036;29;20018;-63
2023/02/09 13:29:11;;;;;;;;;;;;;;;13.12;26.98;99537.81;4912839;29;19923;-63
2023/02/09 13:31:38;;;;;;;;;;;;;;;13.37;27.43;99531.97;4910997;29;20330;-62
2023/02/09 13:34:33;;;;;;;;;;;;;;;13.52;27.58;99528.44;4914056;29;19927;-62
2023/02/09 13:37:21;;;;;;;;;;;;;;;12.98;27.39;99535.97;4913349;29;19919;-62
2023/02/09 13:39:51;;;;;;;;;;;;;;;12.63;28.01;99537.09;4910637;29;20427;-62
2023/02/09 13:42:18;;;;;;;;;;;;;;;13.07;28.16;99531.94;4912183;29;19926;-61
2023/02/09 13:44:43;;;;;;;;;;;;;;;13.54;28.10;99531.81;4914119;29;19965;-63
2023/02/09 13:47:11;;;;;;;;;;;;;;;13.89;27.34;99531.47;4910365;29;19948;-62
2023/02/09 13:49:36;;;;;;;;;;;;;;;13.56;27.52;99528.25;4912408;29;20415;-62
2023/02/09 13:52:08;;;;;;;;;;;;;;;13.75;28.06;99531.47;4912949;29;20014;-62
2023/02/09 13:54:33;;;;;;;;;;;;;;;13.44;27.42;99525.41;4901632;29;19961;-62
2023/02/09 13:56:59;;;;;;;;;;;;;;;13.45;27.87;99536.78;4912490;29;19954;-61
2023/02/09 13:59:24;;;;;;;;;;;;;;;13.90;27.83;99535.84;4908919;29;19966;-62
2023/02/09 14:01:49;;;;;;;;;;;;;;;13.80;27.19;99541.72;4911742;29;19920;-61
2023/02/09 14:04:16;;;;;;;;;;;;;;;13.16;27.08;99549.00;4911248;29;19926;-60
2023/02/09 14:06:57;;;;;;;;;;;;;;;12.54;27.84;99544.56;4912867;29;19923;-62
2023/02/09 14:09:23;;;;;;;;;;;;;;;13.19;27.97;99551.47;4910900;29;19970;-63
2023/02/09 14:11:52;;;;;;;;;;;;;;;12.70;27.98;99552.47;4911832;29;20042;-63
2023/02/09 14:16:04;;;;;;;;;;;;;;;12.84;28.14;99556.97;4911657;29;19988;-62
2023/02/09 14:17:27;;;;;;;;;;;;;;;12.54;28.15;99568.25;4912867;29;20651;-63
2023/02/09 14:19:53;;;;;;;;;;;;;;;12.26;29.04;99570.72;4910073;29;19926;-63
2023/02/09 14:22:30;;;;;;;;;;;;;;;11.85;29.26;99571.97;4911374;29;20081;-62
2023/02/09 14:24:55;;;;;;;;;;;;;;;11.83;29.33;99573.78;4910959;29;19919;-63
2023/02/09 14:27:25;;;;;;;;;;;;;;;11.63;28.85;99577.44;4910280;29;19925;-63
2023/02/09 14:29:50;;;;;;;;;;;;;;;11.46;30.32;99585.34;4909262;29;19930;-64
2023/02/09 14:32:34;;;;;;;;;;;;;;;11.15;30.39;99588.63;4907487;29;19923;-62
2023/02/09 14:35:17;;;;;;;;;;;;;;;10.75;30.44;99584.44;4912813;29;19926;-63
2023/02/09 14:37:43;;;;;;;;;;;;;;;10.73;31.74;99586.28;4912290;29;20039;-63
2023/02/09 14:40:08;;;;;;;;;;;;;;;10.58;31.86;99590.47;4911785;29;20038;-62
2023/02/09 14:42:38;;;;;;;;;;;;;;;10.15;32.45;99595.91;4911913;29;19923;-63
2023/02/09 14:45:12;;;;;;;;;;;;;;;9.53;33.45;99599.44;4910961;29;20364;-62
2023/02/09 14:47:38;;;;;;;;;;;;;;;9.45;33.09;99593.69;4911607;29;19987;-62
2023/02/09 14:50:04;;;;;;;;;;;;;;;9.16;33.75;99598.38;4910679;29;19923;-62
2023/02/09 14:52:31;;;;;;;;;;;;;;;8.56;34.21;99602.47;4903185;29;20314;-62
2023/02/09 14:54:57;;;;;;;;;;;;;;;8.18;34.88;99599.50;4911298;29;19976;-62
2023/02/09 14:57:24;;;;;;;;;;;;;;;8.58;35.08;99591.97;4910720;29;19923;-62
2023/02/09 14:59:49;;;;;;;;;;;;;;;8.73;34.94;99589.59;4914848;29;20304;-62
2023/02/09 15:02:15;;;;;;;;;;;;;;;8.72;34.34;99593.13;4908501;29;19919;-62
2023/02/09 15:04:40;;;;;;;;;;;;;;;8.13;35.19;99592.75;4922272;29;19919;-62
2023/02/09 15:07:06;;;;;;;;;;;;;;;7.50;36.72;99589.72;4915225;29;19998;-61
2023/02/09 15:09:35;;;;;;;;;;;;;;;7.79;36.23;99602.63;4909027;29;20450;-62
2023/02/09 15:12:03;;;;;;;;;;;;;;;7.93;36.00;99598.69;4913948;29;19969;-62
2023/02/09 15:14:28;;;;;;;;;;;;;;;8.05;35.89;99598.22;4910859;29;19962;-62
2023/02/09 15:16:54;;;;;;;;;;;;;;;8.07;36.21;99599.88;4912766;29;19962;-62
2023/02/09 15:19:20;;;;;;;;;;;;;;;8.08;35.80;99609.44;4911170;29;19975;-61
2023/02/09 15:21:45;;;;;;;;;;;;;;;7.95;35.99;99602.97;4914563;29;19935;-62
2023/02/09 15:24:10;;;;;;;;;;;;;;;7.77;36.82;99603.59;4917764;29;19915;-63
2023/02/09 15:26:35;;;;;;;;;;;;;;;7.69;36.43;99608.25;4909895;29;20349;-62
2023/02/09 15:29:00;;;;;;;;;;;;;;;7.58;36.74;99611.22;4916619;29;19923;-63
2023/02/09 15:31:27;;;;;;;;;;;;;;;7.53;37.27;99605.28;4912616;29;19926;-62
2023/02/09 15:33:52;;;;;;;;;;;;;;;7.36;37.11;99605.84;4913604;29;19919;-62
2023/02/09 15:36:18;;;;;;;;;;;;;;;7.18;37.70;99607.31;4915072;29;20284;-62
2023/02/09 15:38:43;;;;;;;;;;;;;;;7.00;38.10;99613.13;4916605;29;20335;-62
2023/02/09 15:49:20;;;;;;;;;;;;;;;6.11;40.24;99619.22;4916392;29;20306;-62
2023/02/09 15:51:46;;;;;;;;;;;;;;;5.94;40.73;99631.84;4915933;29;19926;-62
2023/02/09 15:54:14;;;;;;;;;;;;;;;5.81;40.96;99638.25;4915478;29;20294;-62
2023/02/09 15:56:39;;;;;;;;;;;;;;;5.67;41.31;99633.41;4910194;29;19986;-62
2023/02/09 15:59:04;;;;;;;;;;;;;;;5.57;41.76;99639.72;4911101;29;20359;-62
2023/02/09 16:01:33;;;;;;;;;;;;;;;5.41;41.78;99627.13;4914456;29;20335;-62
2023/02/09 16:03:59;;;;;;;;;;;;;;;5.26;42.15;99627.47;4913630;29;19957;-62
2023/02/09 16:06:24;;;;;;;;;;;;;;;5.12;42.02;99626.97;4910529;29;19965;-61
2023/02/09 16:08:49;;;;;;;;;;;;;;;4.98;42.81;99635.94;4913082;29;20337;-62
2023/02/09 16:11:18;;;;;;;;;;;;;;;4.78;43.48;99634.69;4916241;29;20513;-62
2023/02/09 16:13:43;;;;;;;;;;;;;;;4.63;43.96;99639.34;4912428;29;19919;-62
2023/02/09 16:16:08;;;;;;;;;;;;;;;4.52;44.51;99638.72;4915594;29;20006;-62
2023/02/09 16:18:34;;;;;;;;;;;;;;;4.39;44.92;99643.31;4914160;29;20010;-62
2023/02/09 16:20:59;;;;;;;;;;;;;;;4.23;44.92;99644.50;4913600;29;20018;-62
2023/02/09 16:23:24;;;;;;;;;;;;;;;4.10;45.03;99656.88;4913687;29;19919;-61
2023/02/09 16:25:50;;;;;;;;;;;;;;;3.95;45.46;99655.41;4910292;29;20010;-62
2023/02/09 16:28:15;;;;;;;;;;;;;;;3.86;46.91;99653.00;4914698;29;20010;-62
2023/02/09 16:30:45;;;;;;;;;;;;;;;3.76;47.00;99661.84;4908704;29;19919;-62
2023/02/09 16:33:10;;;;;;;;;;;;;;;3.61;47.08;99655.16;4915253;29;20307;-61
2023/02/09 16:35:36;;;;;;;;;;;;;;;3.46;47.85;99663.22;4912039;29;20439;-62
2023/02/09 16:38:01;;;;;;;;;;;;;;;3.26;48.63;99666.13;4913930;29;20359;-62
2023/02/09 16:40:30;;;;;;;;;;;;;;;3.09;49.20;99668.97;4914813;29;19919;-62
2023/02/09 16:42:55;;;;;;;;;;;;;;;2.98;49.32;99661.34;4914316;29;20092;-62
2023/02/09 16:45:21;;;;;;;;;;;;;;;2.86;50.20;99669.31;4913933;29;20063;-61
2023/02/09 16:47:49;;;;;;;;;;;;;;;2.72;50.71;99673.81;4912968;29;19926;-62
2023/02/09 16:50:34;;;;;;;;;;;;;;;2.57;51.25;99674.88;4913009;29;20459;-62
2023/02/09 16:53:00;;;;;;;;;;;;;;;2.46;51.83;99676.75;4914195;29;20006;-62
2023/02/09 16:55:26;;;;;;;;;;;;;;;2.38;52.08;99674.25;4907285;29;20014;-62
2023/02/09 16:57:53;;;;;;;;;;;;;;;2.31;52.10;99675.22;4912935;29;19926;-61
2023/02/09 17:00:28;;;;;;;;;;;;;;;2.22;52.14;99677.91;4914753;29;19926;-62
2023/02/09 17:02:57;;;;;;;;;;;;;;;2.12;52.59;99680.56;4914386;29;19949;-62
2023/02/09 17:05:26;;;;;;;;;;;;;;;2.03;53.36;99678.13;4914892;29;19919;-61
2023/02/09 17:07:52;;;;;;;;;;;;;;;1.92;53.66;99669.59;4911046;29;19930;-61
2023/02/09 17:10:18;;;;;;;;;;;;;;;1.93;53.94;99665.25;4914226;29;20450;-61
2023/02/09 17:12:43;;;;;;;;;;;;;;;1.84;54.46;99681.75;4915093;29;19923;-62
2023/02/09 17:15:11;;;;;;;;;;;;;;;1.67;54.75;99682.75;4914719;29;19938;-62
2023/02/09 17:17:36;;;;;;;;;;;;;;;1.64;54.44;99689.69;4911644;29;19966;-61
2023/02/09 17:20:02;;;;;;;;;;;;;;;1.53;54.84;99676.84;4914310;29;19963;-62
2023/02/09 17:22:27;;;;;;;;;;;;;;;1.45;55.51;99686.41;4913202;29;19966;-62
2023/02/09 17:24:52;;;;;;;;;;;;;;;2.33;67.40;99678.63;4908502;29;19954;-62
2023/02/09 17:27:17;;;;;;;;;;;;;;;2.27;56.03;99670.91;4911696;29;19985;-61
2023/02/09 17:29:42;;;;;;;;;;;;;;;2.20;55.50;99682.22;4910217;29;19993;-62
2023/02/09 17:32:09;;;;;;;;;;;;;;;2.03;55.31;99695.34;4912776;29;19920;-62
2023/02/09 17:34:34;;;;;;;;;;;;;;;1.97;55.55;99696.28;4911820;29;19919;-63
2023/02/09 17:36:59;;;;;;;;;;;;;;;1.94;56.52;99696.31;4910854;29;19950;-62
2023/02/09 17:39:24;;;;;;;;;;;;;;;1.84;55.80;99700.72;4906697;29;19919;-61
2023/02/09 17:41:49;;;;;;;;;;;;;;;2.31;75.88;99690.75;4914374;29;19926;-62
2023/02/09 17:44:16;;;;;;;;;;;;;;;2.27;60.00;99700.28;4913249;29;19919;-62
2023/02/09 17:46:41;;;;;;;;;;;;;;;1.96;55.92;99704.94;4912339;29;19927;-62
2023/02/09 17:49:07;;;;;;;;;;;;;;;1.71;55.08;99719.78;4912440;29;19975;-62
2023/02/09 17:51:33;;;;;;;;;;;;;;;1.42;55.74;99710.56;4912365;29;20295;-62
2023/02/09 17:53:58;;;;;;;;;;;;;;;1.34;57.39;99708.88;4910240;29;19925;-62
2023/02/09 17:56:24;;;;;;;;;;;;;;;1.30;57.58;99712.38;4913783;29;20017;-62
2023/02/09 17:58:49;;;;;;;;;;;;;;;1.32;58.47;99708.91;4905088;29;20388;-62
2023/02/09 18:01:41;;;;;;;;;;;;;;;1.27;58.59;99713.25;4911091;29;20724;-62
2023/02/09 18:04:06;;;;;;;;;;;;;;;1.03;58.57;99721.16;4908979;29;19919;-62
2023/02/09 18:06:33;;;;;;;;;;;;;;;1.02;59.68;99720.28;4913975;29;19922;-62
2023/02/09 18:09:02;;;;;;;;;;;;;;;1.25;65.04;99727.06;4912226;29;19973;-62
2023/02/09 18:11:37;;;;;;;;;;;;;;;1.13;61.34;99727.97;4911750;29;19919;-62
2023/02/09 18:14:02;;;;;;;;;;;;;;;1.02;60.22;99730.63;4911175;29;19923;-62
2023/02/09 18:16:27;;;;;;;;;;;;;;;0.88;59.41;99733.28;4906846;29;19927;-62
2023/02/09 18:18:53;;;;;;;;;;;;;;;0.81;60.60;99733.34;4907089;29;19919;-62
2023/02/09 18:21:18;;;;;;;;;;;;;;;0.80;60.72;99734.22;4912344;29;19926;-60
2023/02/09 18:23:43;;;;;;;;;;;;;;;0.77;61.22;99731.63;4911205;29;19919;-62
2023/02/09 18:26:08;;;;;;;;;;;;;;;0.75;61.49;99736.78;4914597;29;19915;-61
2023/02/09 18:28:33;;;;;;;;;;;;;;;0.65;60.39;99741.16;4912824;29;19919;-61
2023/02/09 18:30:59;;;;;;;;;;;;;;;0.54;61.13;99747.22;4913016;29;19927;-61
2023/02/09 18:33:24;;;;;;;;;;;;;;;0.53;62.00;99741.19;4910993;29;19926;-61
2023/02/09 18:35:49;;;;;;;;;;;;;;;0.54;63.34;99732.59;4914634;29;20656;-62
2023/02/09 18:38:14;;;;;;;;;;;;;;;0.57;63.34;99735.16;4914534;29;20463;-61
2023/02/09 18:40:40;;;;;;;;;;;;;;;0.40;61.30;99758.44;4917688;29;20299;-61
2023/02/09 18:43:05;;;;;;;;;;;;;;;0.07;61.39;99751.66;4914263;29;19922;-61
2023/02/09 18:45:30;;;;;;;;;;;;;;;0.09;63.72;99744.75;4916559;29;19918;-61
2023/02/09 18:47:56;;;;;;;;;;;;;;;0.19;64.07;99741.28;4912935;29;19947;-61
2023/02/09 18:50:22;;;;;;;;;;;;;;;0.25;64.12;99750.75;4916066;29;19923;-62
2023/02/09 18:52:49;;;;;;;;;;;;;;;0.25;64.46;99745.59;4917448;29;19961;-61
2023/02/09 18:55:14;;;;;;;;;;;;;;;0.25;64.10;99739.56;4913003;29;20276;-62
2023/02/09 18:57:39;;;;;;;;;;;;;;;0.20;63.67;99745.56;4911322;29;20470;-61
2023/02/09 19:00:05;;;;;;;;;;;;;;;0.20;64.49;99748.16;4915471;29;19967;-62
2023/02/09 19:02:30;;;;;;;;;;;;;;;0.16;63.82;99743.88;4913615;29;19923;-61
2023/02/09 19:04:56;;;;;;;;;;;;;;;0.16;64.06;99750.75;4917668;29;20018;-61
2023/02/09 19:07:21;;;;;;;;;;;;;;;0.12;63.46;99752.50;4915800;29;20029;-61
2023/02/09 19:09:47;;;;;;;;;;;;;;;0.06;63.95;99754.22;4913986;29;20056;-61
2023/02/09 19:12:12;;;;;;;;;;;;;;;0.05;64.61;99750.78;4913234;29;20371;-61
2023/02/09 19:14:41;;;;;;;;;;;;;;;0.06;65.05;99757.66;4914093;29;20398;-61
2023/02/09 19:17:07;;;;;;;;;;;;;;;0.08;65.00;99753.34;4915165;29;19919;-61
2023/02/09 19:19:32;;;;;;;;;;;;;;;0.02;63.04;99755.94;4915439;29;19987;-61
2023/02/09 19:21:59;;;;;;;;;;;;;;;-0.08;63.89;99760.25;4912748;29;20022;-60
2023/02/09 19:24:24;;;;;;;;;;;;;;;-0.10;65.17;99767.16;4912947;29;21624;-61
2023/02/09 19:26:49;;;;;;;;;;;;;;;-0.15;63.65;99780.88;4915473;29;19923;-61
2023/02/09 19:29:14;;;;;;;;;;;;;;;-0.33;62.96;99777.44;4914776;29;19923;-62
2023/02/09 19:31:40;;;;;;;;;;;;;;;-0.28;64.95;99780.88;4913292;29;19919;-61
2023/02/09 19:34:05;;;;;;;;;;;;;;;-0.17;66.72;99782.59;4914618;29;19919;-61
2023/02/09 19:36:30;;;;;;;;;;;;;;;-0.11;65.39;99777.44;4913327;29;19919;-63
2023/02/09 19:38:56;;;;;;;;;;;;;;;-0.07;66.13;99772.31;4913124;29;19943;-61
2023/02/09 19:41:22;;;;;;;;;;;;;;;-0.15;64.19;99776.59;4913656;29;19919;-62
2023/02/09 19:43:47;;;;;;;;;;;;;;;-0.23;65.51;99785.19;4912642;29;19974;-61
2023/02/09 19:46:12;;;;;;;;;;;;;;;-0.22;64.86;99776.59;4916707;29;19915;-61
2023/02/09 19:48:40;;;;;;;;;;;;;;;-0.21;65.81;99779.16;4913704;29;20392;-61
2023/02/09 19:51:06;;;;;;;;;;;;;;;-0.22;65.72;99774.88;4909503;29;20292;-61
2023/02/09 19:53:33;;;;;;;;;;;;;;;-0.19;66.04;99774.03;4914311;29;20252;-60
2023/02/09 19:55:58;;;;;;;;;;;;;;;-0.22;66.63;99774.03;4916096;29;21471;-62
2023/02/09 19:58:23;;;;;;;;;;;;;;;-0.39;65.79;99781.75;4913386;29;19997;-61
2023/02/09 20:00:49;;;;;;;;;;;;;;;-0.39;66.31;99776.59;4916222;29;19919;-61
2023/02/09 20:03:14;;;;;;;;;;;;;;;-0.38;66.28;99768.88;4917019;29;19970;-62
2023/02/09 20:05:40;;;;;;;;;;;;;;;-0.40;66.88;99780.03;4914820;29;19927;-61
2023/02/09 20:08:05;;;;;;;;;;;;;;;-0.38;66.00;99784.34;4915004;29;19974;-61
2023/02/09 20:10:30;;;;;;;;;;;;;;;-0.34;66.86;99774.88;4914945;29;20014;-61
2023/02/09 20:12:56;;;;;;;;;;;;;;;-0.31;66.70;99772.28;4916850;29;20002;-62
2023/02/09 20:15:21;;;;;;;;;;;;;;;-0.30;67.53;99767.16;4914132;29;20483;-62
2023/02/09 20:17:46;;;;;;;;;;;;;;;-0.30;65.93;99771.44;4914518;29;19975;-61
2023/02/09 20:20:12;;;;;;;;;;;;;;;-0.33;66.69;99768.88;4915350;29;19922;-62
2023/02/09 20:22:37;;;;;;;;;;;;;;;-0.36;66.44;99766.28;4915353;29;19919;-62
2023/02/09 20:25:02;;;;;;;;;;;;;;;-0.34;67.45;99768.00;4914669;29;19982;-62
2023/02/09 20:27:27;;;;;;;;;;;;;;;-0.35;67.20;99757.69;4912786;29;19923;-61
2023/02/09 20:29:59;;;;;;;;;;;;;;;-0.42;66.40;99772.28;4918259;29;19923;-62
2023/02/09 20:32:25;;;;;;;;;;;;;;;-0.49;65.17;99765.41;4927439;29;20387;-62
2023/02/09 20:34:50;;;;;;;;;;;;;;;-0.64;65.05;99775.72;4919895;29;19919;-61
2023/02/09 20:37:16;;;;;;;;;;;;;;;-0.87;64.62;99767.91;4914206;29;19919;-61
2023/02/09 20:39:41;;;;;;;;;;;;;;;-0.90;66.84;99768.75;4917873;29;19925;-62
2023/02/09 20:47:34;;;;;;;;;;;;;;;-0.85;68.91;99781.69;4915541;29;20374;-62
2023/02/09 20:49:59;;;;;;;;;;;;;;;-0.81;69.08;99791.13;4920855;29;19931;-61
2023/02/09 20:52:27;;;;;;;;;;;;;;;-0.75;68.92;99798.88;4912299;29;21762;-61
2023/02/09 20:54:53;;;;;;;;;;;;;;;3.24;89.43;99787.19;4913015;29;20531;-61
2023/02/09 20:57:18;;;;;;;;;;;;;;;5.73;56.33;99784.25;4909914;29;19930;-62
2023/02/09 20:59:43;;;;;;;;;;;;;;;4.45;59.20;99785.22;4903934;29;19926;-63
2023/02/09 21:02:12;;;;;;;;;;;;;;;4.16;67.48;99796.97;4914841;29;19923;-62